Time;durP1;ratioP1;P1;durP2;ratioP2;P2;SDS_P1;SDS_P2;PMS_P1;PMS_P2;Temp;Humidity;BMP_temperature;BMP_pressure;BME280_temperature;BME280_humidity;BME280_pressure;Samples;Min_cycle;Max_cycle;Signal;HPM_P1;HPM_P2
2023/10/25 00:02:06;;;;;;;54.47;26.45;;;9.30;99.90;;;;;;5102726;28;20020;-83
2023/10/25 00:04:32;;;;;;;60.42;26.80;;;9.20;99.90;;;;;;5102434;28;20062;-79
2023/10/25 00:06:58;;;;;;;59.42;27.52;;;9.20;99.90;;;;;;5101961;28;20040;-80
2023/10/25 00:09:23;;;;;;;54.22;26.38;;;9.10;99.90;;;;;;5102507;28;20035;-80
2023/10/25 00:11:50;;;;;;;54.38;25.00;;;9.10;99.90;;;;;;5102977;28;20032;-80
2023/10/25 00:14:15;;;;;;;52.75;26.33;;;9.10;99.90;;;;;;5101680;28;20119;-80
2023/10/25 00:16:41;;;;;;;55.55;26.83;;;9.10;99.90;;;;;;5102923;28;20065;-78
2023/10/25 00:19:07;;;;;;;55.90;26.20;;;9.00;99.90;;;;;;5100948;28;20085;-79
2023/10/25 00:21:33;;;;;;;58.38;26.83;;;9.10;99.90;;;;;;5101321;28;20407;-80
2023/10/25 00:23:59;;;;;;;54.35;25.67;;;9.10;99.90;;;;;;5101255;28;20027;-80
2023/10/25 00:26:24;;;;;;;56.20;26.85;;;9.10;99.90;;;;;;5100886;28;20071;-81
2023/10/25 00:28:51;;;;;;;56.10;26.65;;;9.00;99.90;;;;;;5102264;28;20039;-82
2023/10/25 00:31:16;;;;;;;58.60;26.08;;;9.10;99.90;;;;;;5101320;28;20031;-79
2023/10/25 00:33:42;;;;;;;60.50;26.27;;;9.10;99.90;;;;;;5102958;28;20024;-79
2023/10/25 00:36:07;;;;;;;64.78;26.85;;;9.00;99.90;;;;;;5101433;28;20028;-82
2023/10/25 00:38:33;;;;;;;61.25;27.55;;;9.00;99.90;;;;;;5101016;28;20395;-80
2023/10/25 00:40:59;;;;;;;57.00;26.48;;;9.00;99.90;;;;;;5100778;28;20039;-78
2023/10/25 00:43:24;;;;;;;60.03;27.50;;;9.00;99.90;;;;;;5101957;28;20075;-81
2023/10/25 00:46:19;;;;;;;63.30;26.77;;;9.00;99.90;;;;;;5102807;28;20035;-79
2023/10/25 00:48:49;;;;;;;59.78;26.30;;;9.00;99.90;;;;;;5101527;28;20385;-86
2023/10/25 00:51:17;;;;;;;64.28;27.08;;;9.10;99.90;;;;;;5100984;28;20087;-77
2023/10/25 00:53:47;;;;;;;60.13;27.58;;;9.00;99.90;;;;;;5101597;28;20016;-79
2023/10/25 00:56:15;;;;;;;60.42;27.17;;;9.00;99.90;;;;;;5101339;28;20055;-82
2023/10/25 00:58:47;;;;;;;58.40;26.75;;;9.00;99.90;;;;;;5100980;28;20028;-79
2023/10/25 01:01:14;;;;;;;58.95;26.05;;;9.00;99.90;;;;;;5100811;28;20032;-80
2023/10/25 01:03:40;;;;;;;55.25;25.65;;;9.00;99.90;;;;;;5101260;28;20087;-80
2023/10/25 01:06:08;;;;;;;57.55;26.38;;;9.00;99.90;;;;;;5100863;28;20045;-81
2023/10/25 01:08:34;;;;;;;57.03;25.58;;;9.00;99.90;;;;;;5102052;28;20024;-82
2023/10/25 01:10:59;;;;;;;57.83;25.38;;;9.00;99.90;;;;;;5100488;28;20020;-80
2023/10/25 01:13:25;;;;;;;54.60;26.42;;;8.90;99.90;;;;;;5100533;28;20036;-80
2023/10/25 01:15:51;;;;;;;58.38;27.30;;;8.90;99.90;;;;;;5101736;28;20055;-80
2023/10/25 01:18:17;;;;;;;54.17;25.65;;;8.90;99.90;;;;;;5100473;28;20067;-79
2023/10/25 01:20:45;;;;;;;57.75;26.73;;;8.90;99.90;;;;;;5101906;28;20019;-81
2023/10/25 01:23:11;;;;;;;59.97;27.15;;;8.90;99.90;;;;;;5100451;28;20063;-78
2023/10/25 01:25:37;;;;;;;61.42;26.90;;;8.90;99.90;;;;;;5100607;28;20127;-79
2023/10/25 01:28:04;;;;;;;61.65;26.80;;;8.90;99.90;;;;;;5099850;28;20047;-79
2023/10/25 01:30:29;;;;;;;59.35;27.25;;;8.90;99.90;;;;;;5100101;28;20062;-82
2023/10/25 01:32:55;;;;;;;63.58;26.48;;;8.90;99.90;;;;;;5100393;28;20028;-79
2023/10/25 01:35:21;;;;;;;55.05;25.25;;;8.90;99.90;;;;;;5098829;28;20373;-81
2023/10/25 01:37:47;;;;;;;62.75;26.88;;;8.90;99.90;;;;;;5098522;28;20056;-79
2023/10/25 01:40:12;;;;;;;64.10;27.00;;;8.90;99.90;;;;;;5102401;28;20091;-81
2023/10/25 01:42:38;;;;;;;62.75;26.98;;;8.80;99.90;;;;;;5105585;28;20024;-82
2023/10/25 01:45:04;;;;;;;57.95;26.52;;;8.90;99.90;;;;;;5104465;28;20031;-79
2023/10/25 01:47:30;;;;;;;58.65;26.95;;;8.90;99.90;;;;;;5105590;28;20063;-80
2023/10/25 01:49:56;;;;;;;59.95;26.63;;;8.90;99.90;;;;;;5105820;28;20031;-80
2023/10/25 01:52:21;;;;;;;55.03;25.02;;;8.90;99.90;;;;;;5104112;28;20453;-80
2023/10/25 01:54:50;;;;;;;54.53;25.27;;;8.90;99.90;;;;;;5103792;28;20074;-79
2023/10/25 01:57:19;;;;;;;58.58;26.10;;;8.90;99.90;;;;;;5103912;28;20429;-79
2023/10/25 01:59:44;;;;;;;62.40;26.95;;;8.90;99.90;;;;;;5104128;28;20046;-80
2023/10/25 02:02:11;;;;;;;54.25;25.88;;;8.90;99.90;;;;;;5103900;28;20098;-80
2023/10/25 02:04:47;;;;;;;55.70;24.77;;;8.90;99.90;;;;;;5104202;28;20028;-84
2023/10/25 02:07:13;;;;;;;57.33;25.35;;;8.90;99.90;;;;;;5105303;28;20043;-79
2023/10/25 02:09:39;;;;;;;55.63;24.48;;;8.80;99.90;;;;;;5103504;28;20016;-80
2023/10/25 02:12:05;;;;;;;56.22;25.10;;;8.80;99.90;;;;;;5103908;28;20048;-81
2023/10/25 02:14:32;;;;;;;60.00;25.38;;;8.80;99.90;;;;;;5105491;28;20165;-77
2023/10/25 02:16:57;;;;;;;59.28;25.15;;;8.80;99.90;;;;;;5104078;28;20032;-81
2023/10/25 02:19:23;;;;;;;52.85;23.73;;;8.80;99.90;;;;;;5103989;28;20026;-80
2023/10/25 02:21:48;;;;;;;55.13;24.75;;;8.70;99.90;;;;;;5103440;28;20075;-80
2023/10/25 02:24:15;;;;;;;63.63;24.85;;;8.70;99.90;;;;;;5103587;28;20031;-82
2023/10/25 02:26:42;;;;;;;53.22;23.73;;;8.70;99.90;;;;;;5103568;28;20036;-81
2023/10/25 02:29:07;;;;;;;53.83;23.35;;;8.60;99.90;;;;;;5103535;28;20031;-79
2023/10/25 02:31:34;;;;;;;54.28;24.40;;;8.70;99.90;;;;;;5103525;28;20024;-78
2023/10/25 02:33:59;;;;;;;52.15;23.75;;;8.60;99.90;;;;;;5103834;28;20050;-80
2023/10/25 02:36:30;;;;;;;55.53;24.27;;;8.60;99.90;;;;;;5104671;28;20020;-82
2023/10/25 02:38:57;;;;;;;50.05;24.08;;;8.60;99.90;;;;;;5103116;28;20409;-80
2023/10/25 02:41:23;;;;;;;53.72;23.58;;;8.70;99.90;;;;;;5102947;28;20020;-79
2023/10/25 02:43:51;;;;;;;49.50;24.20;;;8.60;99.90;;;;;;5102997;28;20173;-81
2023/10/25 02:46:17;;;;;;;49.45;22.75;;;8.60;99.90;;;;;;5103044;28;20048;-79
2023/10/25 02:48:43;;;;;;;47.28;22.60;;;8.60;99.90;;;;;;5103334;28;20030;-87
2023/10/25 02:51:09;;;;;;;49.88;22.83;;;8.60;99.90;;;;;;5103906;28;20068;-80
2023/10/25 02:53:35;;;;;;;50.28;23.48;;;8.50;99.90;;;;;;5102685;28;20020;-82
2023/10/25 02:56:03;;;;;;;53.50;24.02;;;8.50;99.90;;;;;;5101430;28;20044;-81
2023/10/25 02:58:34;;;;;;;46.85;22.52;;;8.50;99.90;;;;;;5104263;28;20024;-81
2023/10/25 03:01:00;;;;;;;57.03;22.92;;;8.50;99.90;;;;;;5104658;28;20032;-84
2023/10/25 03:03:27;;;;;;;50.53;23.02;;;8.50;99.90;;;;;;5102593;28;20032;-80
2023/10/25 03:05:56;;;;;;;52.47;23.45;;;8.50;99.90;;;;;;5104419;28;20024;-81
2023/10/25 03:08:22;;;;;;;56.47;22.67;;;8.50;99.90;;;;;;5102885;28;20047;-80
2023/10/25 03:10:48;;;;;;;55.22;24.50;;;8.50;99.90;;;;;;5102821;28;20072;-82
2023/10/25 03:13:14;;;;;;;52.25;22.30;;;8.50;99.90;;;;;;5103550;28;20087;-82
2023/10/25 03:15:39;;;;;;;51.90;22.85;;;8.60;99.90;;;;;;5104373;28;20061;-80
2023/10/25 03:18:07;;;;;;;46.75;22.20;;;8.50;99.90;;;;;;5103748;28;20401;-82
2023/10/25 03:20:33;;;;;;;50.10;23.05;;;8.50;99.90;;;;;;5102613;28;20042;-81
2023/10/25 03:22:59;;;;;;;48.72;22.10;;;8.40;99.90;;;;;;5102268;28;20028;-79
2023/10/25 03:25:25;;;;;;;46.45;20.83;;;8.50;99.90;;;;;;5102315;28;20054;-81
2023/10/25 03:27:51;;;;;;;50.47;21.15;;;8.40;99.90;;;;;;5101726;28;20032;-79
2023/10/25 03:30:17;;;;;;;47.08;21.27;;;8.40;99.90;;;;;;5102312;28;20376;-79
2023/10/25 03:32:43;;;;;;;41.78;20.92;;;8.40;99.90;;;;;;5103111;28;20024;-81
2023/10/25 03:35:09;;;;;;;51.47;20.95;;;8.30;99.90;;;;;;5102184;28;20032;-80
2023/10/25 03:37:39;;;;;;;52.33;20.20;;;8.30;99.90;;;;;;5101897;28;20020;-81
2023/10/25 03:40:11;;;;;;;46.80;20.60;;;8.20;99.90;;;;;;5103126;28;20020;-83
2023/10/25 03:42:37;;;;;;;44.83;20.95;;;8.30;99.90;;;;;;5103551;28;20024;-79
2023/10/25 03:45:06;;;;;;;41.92;19.92;;;8.30;99.90;;;;;;5101736;28;20016;-80
2023/10/25 03:47:34;;;;;;;46.83;20.02;;;8.30;99.90;;;;;;5101763;28;20036;-79
2023/10/25 03:50:01;;;;;;;53.03;21.23;;;8.30;99.90;;;;;;5101724;28;20077;-79
2023/10/25 03:52:28;;;;;;;48.45;20.80;;;8.40;99.90;;;;;;5102193;28;20019;-80
2023/10/25 03:54:53;;;;;;;51.85;21.65;;;8.20;99.90;;;;;;5101736;28;20507;-81
2023/10/25 03:57:19;;;;;;;42.35;20.45;;;8.20;99.90;;;;;;5101935;28;20020;-78
2023/10/25 03:59:45;;;;;;;42.22;20.48;;;8.20;99.90;;;;;;5101562;28;20044;-81
2023/10/25 04:02:10;;;;;;;48.22;21.15;;;8.20;99.90;;;;;;5101700;28;20024;-82
2023/10/25 04:04:37;;;;;;;44.70;20.33;;;8.20;99.90;;;;;;5102650;28;20028;-84
2023/10/25 04:07:03;;;;;;;44.20;22.02;;;8.20;99.90;;;;;;5101515;28;20073;-82
2023/10/25 04:09:28;;;;;;;49.17;21.92;;;8.20;99.90;;;;;;5103617;28;20024;-82
2023/10/25 04:11:54;;;;;;;46.95;21.58;;;8.20;99.90;;;;;;5101985;28;20095;-83
2023/10/25 04:14:19;;;;;;;50.13;21.25;;;8.30;99.90;;;;;;5101392;28;20042;-80
2023/10/25 04:16:54;;;;;;;48.85;21.65;;;8.20;99.90;;;;;;5103002;28;20032;-82
2023/10/25 04:19:20;;;;;;;48.28;21.25;;;8.30;99.90;;;;;;5101593;28;20031;-81
2023/10/25 04:21:45;;;;;;;47.10;21.85;;;8.10;99.90;;;;;;5101477;28;20028;-81
2023/10/25 04:24:11;;;;;;;51.30;22.08;;;8.10;99.90;;;;;;5101038;28;20056;-81
2023/10/25 04:26:37;;;;;;;52.35;23.13;;;8.20;99.90;;;;;;5102683;28;20035;-78
2023/10/25 04:29:03;;;;;;;44.30;21.23;;;8.10;99.90;;;;;;5099797;28;20036;-80
2023/10/25 04:31:28;;;;;;;50.33;21.80;;;8.10;99.90;;;;;;5100286;28;20024;-84
2023/10/25 04:33:54;;;;;;;46.00;20.13;;;8.10;99.90;;;;;;5102700;28;20020;-79
2023/10/25 04:36:19;;;;;;;42.53;20.67;;;8.10;99.90;;;;;;5102288;28;20050;-81
2023/10/25 04:38:46;;;;;;;48.17;20.65;;;8.10;99.90;;;;;;5101236;28;20031;-80
2023/10/25 04:41:12;;;;;;;46.90;21.40;;;8.10;99.90;;;;;;5100536;28;20024;-81
2023/10/25 04:43:38;;;;;;;42.78;20.25;;;8.10;99.90;;;;;;5100855;28;20021;-80
2023/10/25 04:46:03;;;;;;;43.50;21.02;;;8.00;99.90;;;;;;5098916;28;20031;-80
2023/10/25 04:48:30;;;;;;;48.25;21.13;;;8.00;99.90;;;;;;5100784;28;20032;-82
2023/10/25 04:51:04;;;;;;;55.40;23.05;;;8.00;99.90;;;;;;5100326;28;20020;-78
2023/10/25 04:53:30;;;;;;;48.90;21.15;;;8.10;99.90;;;;;;5101000;28;20024;-82
2023/10/25 04:55:55;;;;;;;44.85;20.77;;;7.90;99.90;;;;;;5100409;28;20510;-80
2023/10/25 04:58:23;;;;;;;46.00;20.58;;;8.00;99.90;;;;;;5100671;28;20054;-80
2023/10/25 05:00:49;;;;;;;47.35;21.27;;;8.10;99.90;;;;;;5100360;28;20028;-78
2023/10/25 05:03:14;;;;;;;46.33;20.80;;;8.00;99.90;;;;;;5100264;28;20016;-81
2023/10/25 05:05:40;;;;;;;41.67;19.58;;;8.10;99.90;;;;;;5097614;28;20092;-79
2023/10/25 05:08:07;;;;;;;43.72;20.90;;;8.10;99.90;;;;;;5101216;28;20088;-81
2023/10/25 05:10:39;;;;;;;43.92;21.05;;;7.90;99.90;;;;;;5100828;28;20016;-81
2023/10/25 05:13:05;;;;;;;50.88;21.58;;;7.90;99.90;;;;;;5101722;28;20032;-79
2023/10/25 05:15:35;;;;;;;38.78;19.35;;;7.90;99.90;;;;;;5099588;28;20035;-79
2023/10/25 05:18:01;;;;;;;52.67;21.65;;;7.90;99.90;;;;;;5101839;28;20035;-81
2023/10/25 05:20:27;;;;;;;45.92;21.30;;;7.90;99.90;;;;;;5100495;28;20391;-81
2023/10/25 05:23:01;;;;;;;49.38;21.35;;;7.90;99.90;;;;;;5100427;28;20028;-83
2023/10/25 05:25:28;;;;;;;46.03;20.75;;;7.90;99.90;;;;;;5100459;28;20058;-80
2023/10/25 05:27:54;;;;;;;40.63;19.08;;;7.90;99.90;;;;;;5101675;28;20042;-79
2023/10/25 05:30:21;;;;;;;45.45;21.70;;;7.90;99.90;;;;;;5099345;28;20047;-83
2023/10/25 05:32:49;;;;;;;44.88;21.25;;;7.90;99.90;;;;;;5100717;28;20031;-79
2023/10/25 05:35:15;;;;;;;48.10;21.65;;;7.90;99.90;;;;;;5100238;28;20112;-80
2023/10/25 05:37:41;;;;;;;43.85;20.13;;;7.90;99.90;;;;;;5099395;28;20095;-78
2023/10/25 05:40:07;;;;;;;41.78;19.92;;;7.90;99.90;;;;;;5100807;28;20024;-80
2023/10/25 05:42:48;;;;;;;48.70;20.15;;;7.80;99.90;;;;;;5101239;28;20031;-80
2023/10/25 05:45:15;;;;;;;42.15;19.92;;;7.80;99.90;;;;;;5100124;28;20028;-81
2023/10/25 05:47:41;;;;;;;44.78;19.55;;;7.80;99.90;;;;;;5100557;28;20053;-78
2023/10/25 05:50:07;;;;;;;42.97;19.52;;;7.70;99.90;;;;;;5101633;28;20016;-78
2023/10/25 05:52:34;;;;;;;36.08;18.13;;;7.70;99.90;;;;;;5099951;28;20024;-77
2023/10/25 05:54:59;;;;;;;39.80;18.83;;;7.70;99.90;;;;;;5100034;28;20068;-80
2023/10/25 05:57:25;;;;;;;40.15;19.33;;;7.60;99.90;;;;;;5099998;28;20054;-77
2023/10/25 05:59:51;;;;;;;37.30;19.33;;;7.60;99.90;;;;;;5099877;28;21445;-78
2023/10/25 06:02:22;;;;;;;39.40;18.73;;;7.60;99.90;;;;;;5099489;28;20024;-78
2023/10/25 06:04:48;;;;;;;43.50;19.00;;;7.60;99.90;;;;;;5099753;28;20050;-77
2023/10/25 06:07:15;;;;;;;43.08;19.95;;;7.50;99.90;;;;;;5099611;28;20586;-77
2023/10/25 06:09:41;;;;;;;42.38;20.40;;;7.50;99.90;;;;;;5101004;28;20116;-78
2023/10/25 06:12:08;;;;;;;40.10;19.23;;;7.50;99.90;;;;;;5099461;28;20020;-77
2023/10/25 06:14:34;;;;;;;38.17;19.13;;;7.50;99.90;;;;;;5101395;28;20033;-80
2023/10/25 06:17:03;;;;;;;39.60;19.25;;;7.40;99.90;;;;;;5099840;28;20024;-80
2023/10/25 06:19:29;;;;;;;37.42;18.15;;;7.50;99.90;;;;;;5100479;28;20016;-78
2023/10/25 06:21:55;;;;;;;37.85;18.30;;;7.40;99.90;;;;;;5101736;28;20017;-81
2023/10/25 06:24:21;;;;;;;34.47;17.80;;;7.40;99.90;;;;;;5101415;28;20521;-80
2023/10/25 06:26:47;;;;;;;36.40;18.02;;;7.50;99.90;;;;;;5103471;28;20032;-80
2023/10/25 06:29:12;;;;;;;37.95;18.40;;;7.40;99.90;;;;;;5107551;28;20039;-79
2023/10/25 06:31:38;;;;;;;38.22;18.85;;;7.30;99.90;;;;;;5104977;28;20073;-78
2023/10/25 06:34:04;;;;;;;43.70;19.17;;;7.30;99.90;;;;;;5106229;28;20766;-80
2023/10/25 06:36:34;;;;;;;38.60;17.77;;;7.30;99.90;;;;;;5104388;28;20083;-80
2023/10/25 06:39:04;;;;;;;40.50;17.63;;;7.40;99.90;;;;;;5104539;28;20137;-79
2023/10/25 06:41:31;;;;;;;38.35;18.63;;;7.40;99.90;;;;;;5103569;28;20030;-77
2023/10/25 06:43:57;;;;;;;35.60;17.83;;;7.40;99.90;;;;;;5105502;28;20028;-80
2023/10/25 06:46:23;;;;;;;37.72;18.63;;;7.40;99.90;;;;;;5105200;28;20028;-79
2023/10/25 06:48:50;;;;;;;42.55;20.10;;;7.40;99.90;;;;;;5102959;28;20062;-82
2023/10/25 06:51:16;;;;;;;37.80;19.02;;;7.40;99.90;;;;;;5104005;28;20023;-77
2023/10/25 06:53:42;;;;;;;37.90;18.23;;;7.40;99.90;;;;;;5105763;28;20032;-78
2023/10/25 06:56:08;;;;;;;38.15;19.63;;;7.40;99.90;;;;;;5104823;28;20077;-78
2023/10/25 06:58:34;;;;;;;43.70;20.13;;;7.50;99.90;;;;;;5103717;28;20035;-79
2023/10/25 07:01:01;;;;;;;40.53;20.23;;;7.50;99.90;;;;;;5103830;28;20448;-79
2023/10/25 07:03:34;;;;;;;46.15;20.23;;;7.60;99.90;;;;;;5102724;28;20020;-80
2023/10/25 07:06:03;;;;;;;47.53;21.10;;;7.70;99.90;;;;;;5102988;28;20063;-80
2023/10/25 07:08:29;;;;;;;46.00;21.65;;;7.80;99.90;;;;;;5103408;28;20036;-79
2023/10/25 07:10:55;;;;;;;44.60;20.63;;;7.90;99.90;;;;;;5105048;28;20016;-81
2023/10/25 07:13:23;;;;;;;49.10;20.92;;;8.00;99.90;;;;;;5105827;28;20580;-79
2023/10/25 07:15:50;;;;;;;47.85;21.08;;;8.10;99.90;;;;;;5103264;28;20042;-78
2023/10/25 07:18:16;;;;;;;41.33;18.33;;;8.10;99.90;;;;;;5101726;28;20027;-79
2023/10/25 07:20:41;;;;;;;43.08;19.83;;;8.30;99.90;;;;;;5104281;28;20020;-81
2023/10/25 07:23:08;;;;;;;38.97;18.65;;;8.40;99.90;;;;;;5104978;28;20468;-81
2023/10/25 07:25:34;;;;;;;44.58;18.30;;;8.40;99.90;;;;;;5099966;28;20107;-84
2023/10/25 07:28:00;;;;;;;37.83;17.65;;;8.40;99.90;;;;;;5102897;28;20043;-80
2023/10/25 07:30:26;;;;;;;38.55;18.27;;;8.40;99.90;;;;;;5104189;28;20047;-81
2023/10/25 07:32:51;;;;;;;42.35;18.55;;;8.50;99.90;;;;;;5102561;28;20024;-80
2023/10/25 07:35:17;;;;;;;39.22;18.75;;;8.60;99.90;;;;;;5103557;28;20031;-83
2023/10/25 07:37:43;;;;;;;42.28;18.85;;;8.70;99.90;;;;;;5101517;28;20469;-89
2023/10/25 07:40:09;;;;;;;37.67;18.80;;;8.80;99.90;;;;;;5103667;28;20039;-81
2023/10/25 07:42:35;;;;;;;44.50;19.83;;;8.80;99.90;;;;;;5103157;28;20050;-81
2023/10/25 07:45:01;;;;;;;39.35;18.83;;;8.90;99.90;;;;;;5104481;28;20028;-82
2023/10/25 07:47:26;;;;;;;36.72;17.02;;;9.00;99.90;;;;;;5102658;28;20476;-83
2023/10/25 07:49:52;;;;;;;34.45;15.45;;;9.00;99.90;;;;;;5104585;28;20013;-83
2023/10/25 07:52:18;;;;;;;34.88;16.33;;;9.10;99.90;;;;;;5103964;28;20454;-83
2023/10/25 07:54:44;;;;;;;35.25;16.75;;;9.20;99.90;;;;;;5102592;28;20220;-79
2023/10/25 07:57:09;;;;;;;33.28;16.23;;;9.30;99.90;;;;;;5104310;28;20028;-85
2023/10/25 07:59:36;;;;;;;36.38;16.13;;;9.30;99.90;;;;;;5104423;28;20024;-83
2023/10/25 08:02:02;;;;;;;38.10;17.13;;;9.40;99.90;;;;;;5103445;28;20024;-80
2023/10/25 08:04:28;;;;;;;33.05;16.25;;;9.40;99.90;;;;;;5102967;28;20021;-83
2023/10/25 08:06:54;;;;;;;34.45;17.05;;;9.50;99.90;;;;;;5103101;28;20072;-83
2023/10/25 08:09:28;;;;;;;30.25;16.17;;;9.60;99.90;;;;;;5102114;28;20038;-86
2023/10/25 08:11:54;;;;;;;29.00;14.88;;;9.80;99.90;;;;;;5102195;28;20039;-85
2023/10/25 08:14:20;;;;;;;32.33;14.40;;;9.90;99.90;;;;;;5100421;28;20087;-82
2023/10/25 08:16:45;;;;;;;31.17;14.23;;;10.00;99.90;;;;;;5102297;28;20028;-84
2023/10/25 08:19:11;;;;;;;28.73;13.95;;;10.10;99.90;;;;;;5102719;28;20024;-83
2023/10/25 08:21:37;;;;;;;33.42;14.98;;;10.10;99.90;;;;;;5103794;28;20016;-81
2023/10/25 08:24:06;;;;;;;32.97;14.70;;;10.20;99.90;;;;;;5102586;28;20022;-78
2023/10/25 08:26:55;;;;;;;29.05;12.85;;;10.30;99.90;;;;;;5102446;28;20097;-84
2023/10/25 08:29:21;;;;;;;30.55;13.40;;;10.40;99.90;;;;;;5103735;28;20059;-78
2023/10/25 08:31:47;;;;;;;21.42;11.20;;;10.60;99.90;;;;;;5102103;28;20024;-82
2023/10/25 08:34:12;;;;;;;25.20;11.35;;;10.80;99.90;;;;;;5103710;28;20058;-81
2023/10/25 08:36:38;;;;;;;22.75;11.82;;;10.90;99.90;;;;;;5102690;28;20112;-81
2023/10/25 08:39:04;;;;;;;24.13;11.10;;;11.00;99.90;;;;;;5103207;28;20028;-82
2023/10/25 08:41:30;;;;;;;22.30;11.90;;;11.20;99.90;;;;;;5103318;28;20024;-80
2023/10/25 08:43:58;;;;;;;19.63;10.32;;;11.30;99.90;;;;;;5102160;28;20068;-82
2023/10/25 08:46:24;;;;;;;22.75;11.68;;;11.50;99.90;;;;;;5103195;28;20021;-80
2023/10/25 08:48:52;;;;;;;23.75;10.98;;;11.60;99.90;;;;;;5101447;28;20027;-84
2023/10/25 08:51:19;;;;;;;22.80;10.48;;;11.60;99.90;;;;;;5102627;28;20043;-82
2023/10/25 08:53:46;;;;;;;20.92;9.43;;;11.70;99.90;;;;;;5102536;28;20023;-81
2023/10/25 08:56:12;;;;;;;23.13;10.18;;;11.70;99.90;;;;;;5101792;28;20044;-80
2023/10/25 08:58:37;;;;;;;21.65;9.93;;;11.70;99.90;;;;;;5102947;28;20052;-79
2023/10/25 09:01:03;;;;;;;18.55;9.93;;;11.70;99.90;;;;;;5101185;28;20079;-80
2023/10/25 09:03:32;;;;;;;20.38;9.68;;;11.60;99.90;;;;;;5101162;28;20088;-80
2023/10/25 09:06:05;;;;;;;18.48;9.55;;;11.50;99.90;;;;;;5101073;28;20034;-80
2023/10/25 09:08:35;;;;;;;18.77;9.07;;;11.60;99.90;;;;;;5102224;28;20073;-80
2023/10/25 09:11:11;;;;;;;27.10;10.10;;;11.60;99.90;;;;;;5102104;28;20054;-81
2023/10/25 09:13:52;;;;;;;19.58;9.65;;;11.50;99.90;;;;;;5099895;28;20408;-79
2023/10/25 09:16:18;;;;;;;21.95;9.93;;;11.50;99.90;;;;;;5101827;28;20020;-79
2023/10/25 09:18:44;;;;;;;19.65;10.18;;;11.30;99.90;;;;;;5101107;28;20085;-79
2023/10/25 09:21:12;;;;;;;19.65;10.35;;;11.30;99.90;;;;;;5102078;28;20048;-79
2023/10/25 09:23:38;;;;;;;21.45;9.32;;;11.20;99.90;;;;;;5101572;28;20042;-79
2023/10/25 09:26:16;;;;;;;21.23;10.13;;;11.20;99.90;;;;;;5101076;28;20024;-78
2023/10/25 09:28:42;;;;;;;22.25;10.25;;;11.20;99.90;;;;;;5101849;28;20042;-81
2023/10/25 09:31:30;;;;;;;20.35;9.95;;;11.20;99.90;;;;;;5100307;28;20016;-83
2023/10/25 09:33:57;;;;;;;22.90;10.02;;;11.20;99.90;;;;;;5100752;28;20043;-79
2023/10/25 09:36:23;;;;;;;25.27;9.60;;;11.20;99.90;;;;;;5101096;28;20119;-80
2023/10/25 09:38:50;;;;;;;17.83;8.50;;;11.30;99.90;;;;;;5102152;28;20063;-77
2023/10/25 09:41:17;;;;;;;15.60;8.38;;;11.40;99.90;;;;;;5094833;28;20144;-78
2023/10/25 09:43:50;;;;;;;16.13;9.05;;;11.40;99.90;;;;;;5100982;28;20477;-79
2023/10/25 09:46:18;;;;;;;17.90;8.05;;;11.50;99.90;;;;;;5097445;28;20044;-77
2023/10/25 09:48:56;;;;;;;18.40;8.27;;;11.50;99.90;;;;;;5097972;28;20148;-77
2023/10/25 09:51:37;;;;;;;17.95;8.27;;;11.50;99.90;;;;;;5099908;28;20058;-79
2023/10/25 09:54:13;;;;;;;14.48;7.13;;;11.60;99.90;;;;;;5100824;28;20032;-79
2023/10/25 09:56:40;;;;;;;15.43;7.25;;;11.70;99.90;;;;;;5101822;28;20501;-79
2023/10/25 09:59:13;;;;;;;19.27;7.20;;;11.70;99.90;;;;;;5099701;28;20027;-77
2023/10/25 10:01:40;;;;;;;16.67;7.57;;;11.80;99.90;;;;;;5102529;28;20464;-74
2023/10/25 10:04:35;;;;;;;16.77;7.35;;;11.70;99.90;;;;;;5104565;28;20020;-76
2023/10/25 10:07:31;;;;;;;14.13;6.78;;;11.80;99.90;;;;;;5104541;28;20042;-77
2023/10/25 10:10:17;;;;;;;18.00;8.25;;;11.70;99.90;;;;;;5105204;28;20059;-76
2023/10/25 10:12:43;;;;;;;15.35;7.07;;;11.70;99.90;;;;;;5102597;28;20035;-74
2023/10/25 10:15:16;;;;;;;15.02;7.78;;;11.70;99.90;;;;;;5103482;28;20051;-76
2023/10/25 10:17:43;;;;;;;17.48;7.80;;;11.80;99.90;;;;;;5104483;28;20083;-77
2023/10/25 10:20:28;;;;;;;16.80;8.40;;;11.80;99.90;;;;;;5103443;28;20115;-75
2023/10/25 10:23:05;;;;;;;14.02;7.78;;;11.80;99.90;;;;;;5102485;28;20024;-77
2023/10/25 10:25:50;;;;;;;14.27;8.10;;;11.90;99.90;;;;;;5103959;28;20027;-77
2023/10/25 10:28:37;;;;;;;17.23;8.05;;;12.00;99.90;;;;;;5103051;28;20035;-74
2023/10/25 10:31:03;;;;;;;18.48;8.10;;;12.00;99.90;;;;;;5103500;28;20029;-75
2023/10/25 10:33:29;;;;;;;13.40;7.82;;;12.10;99.90;;;;;;5102321;28;20025;-76
2023/10/25 10:36:00;;;;;;;14.65;7.88;;;12.20;99.90;;;;;;5103905;28;20039;-78
2023/10/25 10:38:26;;;;;;;19.13;8.77;;;12.30;99.90;;;;;;5104112;28;20027;-74
2023/10/25 10:40:52;;;;;;;14.90;8.25;;;12.40;99.90;;;;;;5099346;28;20028;-75
2023/10/25 10:43:20;;;;;;;12.32;8.52;;;12.70;99.90;;;;;;5098422;28;20058;-76
2023/10/25 10:45:50;;;;;;;17.52;7.70;;;12.80;99.90;;;;;;5101637;28;20042;-76
2023/10/25 10:48:21;;;;;;;16.02;7.88;;;13.10;99.90;;;;;;5101589;28;20063;-73
2023/10/25 10:50:48;;;;;;;15.13;7.53;;;13.30;99.90;;;;;;5103920;28;20024;-75
2023/10/25 10:53:14;;;;;;;13.70;7.13;;;13.40;99.90;;;;;;5103949;28;20031;-73
2023/10/25 10:55:40;;;;;;;16.45;7.55;;;13.60;99.90;;;;;;5102051;28;20044;-75
2023/10/25 10:58:06;;;;;;;16.02;6.63;;;13.80;99.90;;;;;;5103146;28;20028;-74
2023/10/25 11:00:35;;;;;;;14.15;6.82;;;13.90;99.90;;;;;;5103749;28;20775;-74
2023/10/25 11:03:02;;;;;;;15.43;6.72;;;14.10;99.90;;;;;;5103646;28;20031;-76
2023/10/25 11:05:29;;;;;;;16.30;7.50;;;14.10;99.90;;;;;;5103845;28;20073;-77
2023/10/25 11:07:55;;;;;;;13.38;6.68;;;14.20;99.90;;;;;;5101470;28;20040;-76
2023/10/25 11:10:21;;;;;;;13.70;6.95;;;14.40;99.90;;;;;;5101706;28;20035;-75
2023/10/25 11:12:47;;;;;;;11.73;6.53;;;14.40;99.90;;;;;;5100442;28;20016;-73
2023/10/25 11:15:13;;;;;;;10.52;5.78;;;14.50;99.90;;;;;;5101427;28;20026;-74
2023/10/25 11:17:39;;;;;;;12.23;6.25;;;14.70;99.90;;;;;;5102618;28;20043;-77
2023/10/25 11:20:06;;;;;;;14.75;5.95;;;14.90;99.90;;;;;;5102796;28;20024;-75
2023/10/25 11:22:36;;;;;;;16.55;6.95;;;14.90;99.90;;;;;;5101285;28;20028;-76
2023/10/25 11:25:09;;;;;;;13.23;6.15;;;14.90;99.90;;;;;;5101247;28;20020;-75
2023/10/25 11:27:35;;;;;;;12.60;5.82;;;14.90;99.90;;;;;;5103506;28;20043;-74
2023/10/25 11:30:01;;;;;;;13.90;5.63;;;14.80;99.90;;;;;;5101996;28;20028;-74
2023/10/25 11:32:31;;;;;;;10.63;5.47;;;14.70;99.90;;;;;;5102840;28;20024;-73
2023/10/25 11:34:58;;;;;;;17.77;5.85;;;14.60;99.90;;;;;;5104145;28;20358;-75
2023/10/25 11:37:27;;;;;;;14.50;6.22;;;14.50;99.90;;;;;;5101727;28;20032;-74
2023/10/25 11:39:56;;;;;;;15.90;6.88;;;14.40;99.90;;;;;;5103623;28;20012;-75
2023/10/25 11:42:24;;;;;;;16.88;6.70;;;14.50;99.90;;;;;;5101934;28;20384;-75
2023/10/25 11:44:50;;;;;;;21.25;6.85;;;14.50;99.90;;;;;;5103840;28;20062;-75
2023/10/25 11:47:20;;;;;;;13.93;6.35;;;14.50;99.90;;;;;;5103389;28;20028;-75
2023/10/25 11:49:52;;;;;;;9.65;5.57;;;14.50;99.90;;;;;;5102768;28;20019;-74
2023/10/25 11:52:28;;;;;;;10.65;4.80;;;14.40;99.90;;;;;;5103263;28;20044;-75
2023/10/25 11:54:57;;;;;;;11.18;5.53;;;14.50;99.90;;;;;;5103534;28;20032;-76
2023/10/25 11:57:31;;;;;;;10.73;5.15;;;14.50;99.90;;;;;;5102047;28;20051;-75
2023/10/25 11:59:57;;;;;;;11.20;5.20;;;14.60;99.90;;;;;;5103873;28;20028;-74
2023/10/25 12:02:24;;;;;;;11.55;5.00;;;14.60;99.90;;;;;;5103215;28;20063;-76
2023/10/25 12:04:50;;;;;;;9.93;5.05;;;14.80;99.90;;;;;;5101469;28;20028;-76
2023/10/25 12:07:23;;;;;;;12.18;5.53;;;14.80;99.90;;;;;;5101951;28;20032;-73
2023/10/25 12:09:50;;;;;;;13.10;5.53;;;15.00;99.90;;;;;;5102291;28;20039;-75
2023/10/25 12:12:16;;;;;;;15.07;5.47;;;15.10;99.90;;;;;;5101024;28;20016;-77
2023/10/25 12:14:42;;;;;;;13.50;5.28;;;15.20;99.90;;;;;;5104068;28;20404;-74
2023/10/25 12:17:07;;;;;;;11.18;5.60;;;15.30;99.90;;;;;;5102707;28;20136;-73
2023/10/25 12:19:36;;;;;;;14.70;5.80;;;15.30;99.90;;;;;;5102154;28;20024;-75
2023/10/25 12:22:09;;;;;;;11.68;5.72;;;15.30;99.90;;;;;;5101955;28;20042;-75
2023/10/25 12:24:36;;;;;;;15.47;5.93;;;15.40;99.90;;;;;;5101011;28;20065;-75
2023/10/25 12:27:03;;;;;;;10.57;5.57;;;15.50;99.90;;;;;;5102863;28;20047;-75
2023/10/25 12:29:29;;;;;;;20.15;5.50;;;15.50;99.90;;;;;;5101318;28;20044;-76
2023/10/25 12:31:55;;;;;;;10.88;5.60;;;15.60;99.90;;;;;;5103032;28;20074;-74
2023/10/25 12:34:21;;;;;;;8.35;5.45;;;15.60;99.90;;;;;;5103469;28;20046;-76
2023/10/25 12:36:46;;;;;;;14.43;5.47;;;15.50;99.90;;;;;;5103146;28;20024;-75
2023/10/25 12:39:13;;;;;;;13.85;5.78;;;15.50;99.90;;;;;;5101104;28;20039;-74